sensor_id;sensor_type;location;lat;lon;timestamp;P1;durP1;ratioP1;P2;durP2;ratioP2
81152;SDS011;70630;45.546;10.198;2023-07-29T00:02:13;11.68;;;4.60;;
81152;SDS011;70630;45.546;10.198;2023-07-29T00:04:39;12.70;;;4.28;;
81152;SDS011;70630;45.546;10.198;2023-07-29T00:07:05;8.45;;;4.65;;
81152;SDS011;70630;45.546;10.198;2023-07-29T00:09:31;10.10;;;4.60;;
81152;SDS011;70630;45.546;10.198;2023-07-29T00:11:57;10.30;;;4.78;;
81152;SDS011;70630;45.546;10.198;2023-07-29T00:14:23;10.23;;;4.60;;
81152;SDS011;70630;45.546;10.198;2023-07-29T00:16:49;11.07;;;4.30;;
81152;SDS011;70630;45.546;10.198;2023-07-29T00:19:15;9.20;;;4.78;;
81152;SDS011;70630;45.546;10.198;2023-07-29T00:21:41;12.23;;;5.20;;
81152;SDS011;70630;45.546;10.198;2023-07-29T00:24:07;9.27;;;4.13;;
81152;SDS011;70630;45.546;10.198;2023-07-29T00:26:33;7.78;;;4.30;;
81152;SDS011;70630;45.546;10.198;2023-07-29T00:28:59;11.50;;;4.80;;
81152;SDS011;70630;45.546;10.198;2023-07-29T00:31:25;11.75;;;4.32;;
81152;SDS011;70630;45.546;10.198;2023-07-29T00:33:51;9.75;;;4.22;;
81152;SDS011;70630;45.546;10.198;2023-07-29T00:36:17;10.40;;;4.65;;
81152;SDS011;70630;45.546;10.198;2023-07-29T00:38:44;9.95;;;4.70;;
81152;SDS011;70630;45.546;10.198;2023-07-29T00:41:11;11.68;;;4.80;;
81152;SDS011;70630;45.546;10.198;2023-07-29T00:43:38;12.18;;;4.53;;
81152;SDS011;70630;45.546;10.198;2023-07-29T00:46:04;11.70;;;4.80;;
81152;SDS011;70630;45.546;10.198;2023-07-29T00:48:31;12.82;;;4.95;;
81152;SDS011;70630;45.546;10.198;2023-07-29T00:50:57;10.25;;;4.28;;
81152;SDS011;70630;45.546;10.198;2023-07-29T00:53:23;11.82;;;5.22;;
81152;SDS011;70630;45.546;10.198;2023-07-29T00:55:49;10.07;;;4.75;;
81152;SDS011;70630;45.546;10.198;2023-07-29T00:58:15;11.32;;;4.60;;
81152;SDS011;70630;45.546;10.198;2023-07-29T01:00:41;9.85;;;4.70;;
81152;SDS011;70630;45.546;10.198;2023-07-29T01:03:08;11.07;;;5.03;;
81152;SDS011;70630;45.546;10.198;2023-07-29T01:05:40;12.80;;;5.45;;
81152;SDS011;70630;45.546;10.198;2023-07-29T01:08:18;10.35;;;5.00;;
81152;SDS011;70630;45.546;10.198;2023-07-29T01:13:41;11.43;;;4.70;;
81152;SDS011;70630;45.546;10.198;2023-07-29T01:16:21;8.77;;;4.50;;
81152;SDS011;70630;45.546;10.198;2023-07-29T01:18:49;8.43;;;4.70;;
81152;SDS011;70630;45.546;10.198;2023-07-29T01:21:16;10.32;;;4.90;;
81152;SDS011;70630;45.546;10.198;2023-07-29T01:23:43;10.48;;;4.40;;
81152;SDS011;70630;45.546;10.198;2023-07-29T01:26:09;10.02;;;4.70;;
81152;SDS011;70630;45.546;10.198;2023-07-29T01:28:35;10.07;;;4.55;;
81152;SDS011;70630;45.546;10.198;2023-07-29T01:31:03;8.55;;;4.50;;
81152;SDS011;70630;45.546;10.198;2023-07-29T01:33:34;10.38;;;4.70;;
81152;SDS011;70630;45.546;10.198;2023-07-29T01:36:02;11.98;;;4.35;;
81152;SDS011;70630;45.546;10.198;2023-07-29T01:38:33;11.82;;;4.72;;
81152;SDS011;70630;45.546;10.198;2023-07-29T01:41:03;10.20;;;5.07;;
81152;SDS011;70630;45.546;10.198;2023-07-29T01:43:29;8.85;;;4.80;;
81152;SDS011;70630;45.546;10.198;2023-07-29T01:45:56;9.63;;;4.60;;
81152;SDS011;70630;45.546;10.198;2023-07-29T01:48:23;8.23;;;4.30;;
81152;SDS011;70630;45.546;10.198;2023-07-29T01:50:50;10.38;;;4.88;;
81152;SDS011;70630;45.546;10.198;2023-07-29T01:53:16;10.02;;;4.45;;
81152;SDS011;70630;45.546;10.198;2023-07-29T01:55:43;8.52;;;4.70;;
81152;SDS011;70630;45.546;10.198;2023-07-29T01:58:10;9.52;;;4.80;;
81152;SDS011;70630;45.546;10.198;2023-07-29T02:00:36;11.80;;;4.85;;
81152;SDS011;70630;45.546;10.198;2023-07-29T02:03:02;10.18;;;4.95;;
81152;SDS011;70630;45.546;10.198;2023-07-29T02:05:28;10.45;;;4.15;;
81152;SDS011;70630;45.546;10.198;2023-07-29T02:07:54;8.57;;;4.43;;
81152;SDS011;70630;45.546;10.198;2023-07-29T02:10:20;9.60;;;4.80;;
81152;SDS011;70630;45.546;10.198;2023-07-29T02:12:46;9.27;;;4.25;;
81152;SDS011;70630;45.546;10.198;2023-07-29T02:15:13;8.95;;;4.50;;
81152;SDS011;70630;45.546;10.198;2023-07-29T02:17:40;7.15;;;4.47;;
81152;SDS011;70630;45.546;10.198;2023-07-29T02:20:06;8.30;;;4.78;;
81152;SDS011;70630;45.546;10.198;2023-07-29T02:22:33;10.23;;;4.75;;
81152;SDS011;70630;45.546;10.198;2023-07-29T02:24:59;8.50;;;4.45;;
81152;SDS011;70630;45.546;10.198;2023-07-29T02:27:26;10.95;;;4.28;;
81152;SDS011;70630;45.546;10.198;2023-07-29T02:29:53;10.55;;;4.78;;
81152;SDS011;70630;45.546;10.198;2023-07-29T02:32:19;9.27;;;4.53;;
81152;SDS011;70630;45.546;10.198;2023-07-29T02:34:45;9.05;;;4.57;;
81152;SDS011;70630;45.546;10.198;2023-07-29T02:37:11;7.35;;;4.43;;
81152;SDS011;70630;45.546;10.198;2023-07-29T02:39:37;10.82;;;4.38;;
81152;SDS011;70630;45.546;10.198;2023-07-29T02:42:03;8.10;;;4.43;;
81152;SDS011;70630;45.546;10.198;2023-07-29T02:44:29;10.50;;;4.82;;
81152;SDS011;70630;45.546;10.198;2023-07-29T02:46:56;8.27;;;4.75;;
81152;SDS011;70630;45.546;10.198;2023-07-29T02:49:22;9.18;;;3.85;;
81152;SDS011;70630;45.546;10.198;2023-07-29T02:51:48;8.50;;;4.30;;
81152;SDS011;70630;45.546;10.198;2023-07-29T02:54:14;8.90;;;4.60;;
81152;SDS011;70630;45.546;10.198;2023-07-29T02:56:41;9.07;;;4.18;;
81152;SDS011;70630;45.546;10.198;2023-07-29T02:59:07;9.80;;;4.18;;
81152;SDS011;70630;45.546;10.198;2023-07-29T03:01:33;8.57;;;4.43;;
81152;SDS011;70630;45.546;10.198;2023-07-29T03:03:59;8.40;;;4.43;;
81152;SDS011;70630;45.546;10.198;2023-07-29T03:06:25;8.98;;;4.63;;
81152;SDS011;70630;45.546;10.198;2023-07-29T03:08:51;8.43;;;4.40;;
81152;SDS011;70630;45.546;10.198;2023-07-29T03:11:18;9.52;;;4.40;;
81152;SDS011;70630;45.546;10.198;2023-07-29T03:13:44;9.60;;;4.57;;
81152;SDS011;70630;45.546;10.198;2023-07-29T03:16:14;9.75;;;4.60;;
81152;SDS011;70630;45.546;10.198;2023-07-29T03:18:40;9.90;;;4.60;;
81152;SDS011;70630;45.546;10.198;2023-07-29T03:21:07;10.90;;;4.43;;
81152;SDS011;70630;45.546;10.198;2023-07-29T03:23:33;8.60;;;4.70;;
81152;SDS011;70630;45.546;10.198;2023-07-29T03:26:00;8.65;;;4.28;;
81152;SDS011;70630;45.546;10.198;2023-07-29T03:28:27;7.75;;;4.65;;
81152;SDS011;70630;45.546;10.198;2023-07-29T03:30:53;7.43;;;4.40;;
81152;SDS011;70630;45.546;10.198;2023-07-29T03:33:20;8.32;;;4.03;;
81152;SDS011;70630;45.546;10.198;2023-07-29T03:35:46;8.43;;;4.07;;
81152;SDS011;70630;45.546;10.198;2023-07-29T03:38:12;10.40;;;4.50;;
81152;SDS011;70630;45.546;10.198;2023-07-29T03:40:39;10.85;;;5.15;;
81152;SDS011;70630;45.546;10.198;2023-07-29T03:43:05;8.68;;;4.07;;
81152;SDS011;70630;45.546;10.198;2023-07-29T03:45:31;10.77;;;4.13;;
81152;SDS011;70630;45.546;10.198;2023-07-29T03:47:57;9.10;;;4.47;;
81152;SDS011;70630;45.546;10.198;2023-07-29T03:50:23;8.90;;;3.80;;
81152;SDS011;70630;45.546;10.198;2023-07-29T03:52:50;10.25;;;4.80;;
81152;SDS011;70630;45.546;10.198;2023-07-29T03:55:16;9.82;;;4.47;;
81152;SDS011;70630;45.546;10.198;2023-07-29T03:57:42;8.60;;;4.43;;
81152;SDS011;70630;45.546;10.198;2023-07-29T04:00:08;10.23;;;4.60;;
81152;SDS011;70630;45.546;10.198;2023-07-29T04:02:34;8.93;;;4.70;;
81152;SDS011;70630;45.546;10.198;2023-07-29T04:05:02;9.82;;;4.45;;
81152;SDS011;70630;45.546;10.198;2023-07-29T04:07:29;8.07;;;4.50;;
81152;SDS011;70630;45.546;10.198;2023-07-29T04:09:55;9.95;;;4.28;;
81152;SDS011;70630;45.546;10.198;2023-07-29T04:12:21;9.65;;;4.47;;
81152;SDS011;70630;45.546;10.198;2023-07-29T04:14:48;9.32;;;4.38;;
81152;SDS011;70630;45.546;10.198;2023-07-29T04:17:14;10.38;;;4.93;;
81152;SDS011;70630;45.546;10.198;2023-07-29T04:19:40;9.82;;;4.55;;
81152;SDS011;70630;45.546;10.198;2023-07-29T04:22:06;11.57;;;4.78;;
81152;SDS011;70630;45.546;10.198;2023-07-29T04:24:32;9.18;;;4.53;;
81152;SDS011;70630;45.546;10.198;2023-07-29T04:26:58;10.80;;;5.18;;
81152;SDS011;70630;45.546;10.198;2023-07-29T04:29:24;10.13;;;4.40;;
81152;SDS011;70630;45.546;10.198;2023-07-29T04:31:51;8.00;;;4.10;;
81152;SDS011;70630;45.546;10.198;2023-07-29T04:34:20;11.70;;;4.63;;
81152;SDS011;70630;45.546;10.198;2023-07-29T04:36:46;9.73;;;4.20;;
81152;SDS011;70630;45.546;10.198;2023-07-29T04:39:12;8.00;;;4.20;;
81152;SDS011;70630;45.546;10.198;2023-07-29T04:41:39;9.30;;;4.35;;
81152;SDS011;70630;45.546;10.198;2023-07-29T04:44:05;8.48;;;4.30;;
81152;SDS011;70630;45.546;10.198;2023-07-29T04:46:31;8.27;;;3.80;;
81152;SDS011;70630;45.546;10.198;2023-07-29T04:48:57;10.18;;;4.43;;
81152;SDS011;70630;45.546;10.198;2023-07-29T04:51:23;8.93;;;4.07;;
81152;SDS011;70630;45.546;10.198;2023-07-29T04:53:50;9.32;;;4.40;;
81152;SDS011;70630;45.546;10.198;2023-07-29T04:56:16;9.10;;;4.43;;
81152;SDS011;70630;45.546;10.198;2023-07-29T04:58:42;9.60;;;4.15;;
81152;SDS011;70630;45.546;10.198;2023-07-29T05:01:08;9.20;;;4.05;;
81152;SDS011;70630;45.546;10.198;2023-07-29T05:03:34;10.13;;;5.10;;
81152;SDS011;70630;45.546;10.198;2023-07-29T05:06:01;9.57;;;4.63;;
81152;SDS011;70630;45.546;10.198;2023-07-29T05:08:28;8.90;;;4.03;;
81152;SDS011;70630;45.546;10.198;2023-07-29T05:10:54;9.48;;;4.47;;
81152;SDS011;70630;45.546;10.198;2023-07-29T05:13:21;10.35;;;4.72;;
81152;SDS011;70630;45.546;10.198;2023-07-29T05:15:48;10.77;;;4.55;;
81152;SDS011;70630;45.546;10.198;2023-07-29T05:18:14;10.90;;;5.00;;
81152;SDS011;70630;45.546;10.198;2023-07-29T05:20:41;9.90;;;4.55;;
81152;SDS011;70630;45.546;10.198;2023-07-29T05:23:07;8.25;;;4.68;;
81152;SDS011;70630;45.546;10.198;2023-07-29T05:25:33;10.05;;;4.18;;
81152;SDS011;70630;45.546;10.198;2023-07-29T05:28:02;13.13;;;4.45;;
81152;SDS011;70630;45.546;10.198;2023-07-29T05:30:29;9.57;;;4.30;;
81152;SDS011;70630;45.546;10.198;2023-07-29T05:33:02;8.45;;;4.18;;
81152;SDS011;70630;45.546;10.198;2023-07-29T05:35:28;8.63;;;4.10;;
81152;SDS011;70630;45.546;10.198;2023-07-29T05:37:54;7.97;;;4.10;;
81152;SDS011;70630;45.546;10.198;2023-07-29T05:40:20;10.18;;;4.30;;
81152;SDS011;70630;45.546;10.198;2023-07-29T05:42:46;9.60;;;4.43;;
81152;SDS011;70630;45.546;10.198;2023-07-29T05:45:13;9.90;;;4.00;;
81152;SDS011;70630;45.546;10.198;2023-07-29T05:47:39;10.48;;;4.43;;
81152;SDS011;70630;45.546;10.198;2023-07-29T05:50:05;8.68;;;4.20;;
81152;SDS011;70630;45.546;10.198;2023-07-29T05:52:31;10.05;;;4.60;;
81152;SDS011;70630;45.546;10.198;2023-07-29T05:54:57;9.50;;;4.43;;
81152;SDS011;70630;45.546;10.198;2023-07-29T05:57:24;11.02;;;4.50;;
81152;SDS011;70630;45.546;10.198;2023-07-29T06:02:34;10.70;;;4.95;;
81152;SDS011;70630;45.546;10.198;2023-07-29T06:05:00;7.68;;;4.40;;
81152;SDS011;70630;45.546;10.198;2023-07-29T06:07:28;8.63;;;4.10;;
81152;SDS011;70630;45.546;10.198;2023-07-29T06:09:55;7.93;;;4.43;;
81152;SDS011;70630;45.546;10.198;2023-07-29T06:12:22;9.68;;;4.55;;
81152;SDS011;70630;45.546;10.198;2023-07-29T06:14:48;8.00;;;3.72;;
81152;SDS011;70630;45.546;10.198;2023-07-29T06:17:14;10.68;;;4.60;;
81152;SDS011;70630;45.546;10.198;2023-07-29T06:19:40;11.00;;;4.20;;
81152;SDS011;70630;45.546;10.198;2023-07-29T06:22:06;9.02;;;4.20;;
81152;SDS011;70630;45.546;10.198;2023-07-29T06:24:32;9.88;;;4.15;;
81152;SDS011;70630;45.546;10.198;2023-07-29T06:26:58;8.77;;;4.50;;
81152;SDS011;70630;45.546;10.198;2023-07-29T06:29:25;9.25;;;4.32;;
81152;SDS011;70630;45.546;10.198;2023-07-29T06:31:51;8.27;;;4.00;;
81152;SDS011;70630;45.546;10.198;2023-07-29T06:34:17;9.88;;;4.60;;
81152;SDS011;70630;45.546;10.198;2023-07-29T06:36:43;9.05;;;4.45;;
81152;SDS011;70630;45.546;10.198;2023-07-29T06:39:09;10.90;;;4.30;;
81152;SDS011;70630;45.546;10.198;2023-07-29T06:41:36;8.50;;;3.83;;
81152;SDS011;70630;45.546;10.198;2023-07-29T06:44:02;8.65;;;4.30;;
81152;SDS011;70630;45.546;10.198;2023-07-29T06:46:28;10.50;;;4.15;;
81152;SDS011;70630;45.546;10.198;2023-07-29T06:48:54;8.40;;;4.10;;
81152;SDS011;70630;45.546;10.198;2023-07-29T06:51:20;8.15;;;4.25;;
81152;SDS011;70630;45.546;10.198;2023-07-29T06:53:46;8.95;;;4.38;;
81152;SDS011;70630;45.546;10.198;2023-07-29T06:56:12;7.38;;;3.70;;
81152;SDS011;70630;45.546;10.198;2023-07-29T06:58:38;9.82;;;4.13;;
81152;SDS011;70630;45.546;10.198;2023-07-29T07:01:04;8.60;;;4.40;;
81152;SDS011;70630;45.546;10.198;2023-07-29T07:03:30;8.52;;;4.22;;
81152;SDS011;70630;45.546;10.198;2023-07-29T07:05:56;7.68;;;4.13;;
81152;SDS011;70630;45.546;10.198;2023-07-29T07:08:22;11.98;;;4.50;;
81152;SDS011;70630;45.546;10.198;2023-07-29T07:10:48;9.98;;;4.72;;
81152;SDS011;70630;45.546;10.198;2023-07-29T07:13:14;8.60;;;4.60;;
81152;SDS011;70630;45.546;10.198;2023-07-29T07:15:40;14.45;;;4.55;;
81152;SDS011;70630;45.546;10.198;2023-07-29T07:18:06;11.60;;;4.55;;
81152;SDS011;70630;45.546;10.198;2023-07-29T07:20:32;14.18;;;4.30;;
81152;SDS011;70630;45.546;10.198;2023-07-29T07:22:58;11.52;;;4.40;;
81152;SDS011;70630;45.546;10.198;2023-07-29T07:25:24;11.15;;;4.20;;
81152;SDS011;70630;45.546;10.198;2023-07-29T07:27:51;10.88;;;4.13;;
81152;SDS011;70630;45.546;10.198;2023-07-29T07:30:17;10.02;;;4.22;;
81152;SDS011;70630;45.546;10.198;2023-07-29T07:32:43;12.68;;;3.88;;
81152;SDS011;70630;45.546;10.198;2023-07-29T07:35:10;11.18;;;4.18;;
81152;SDS011;70630;45.546;10.198;2023-07-29T07:37:36;8.77;;;3.78;;
81152;SDS011;70630;45.546;10.198;2023-07-29T07:40:02;9.23;;;4.03;;
81152;SDS011;70630;45.546;10.198;2023-07-29T07:42:28;9.23;;;3.58;;
81152;SDS011;70630;45.546;10.198;2023-07-29T07:44:54;10.07;;;4.18;;
81152;SDS011;70630;45.546;10.198;2023-07-29T07:47:20;8.07;;;3.72;;
81152;SDS011;70630;45.546;10.198;2023-07-29T07:49:46;9.02;;;3.80;;
81152;SDS011;70630;45.546;10.198;2023-07-29T07:52:14;8.07;;;3.50;;
81152;SDS011;70630;45.546;10.198;2023-07-29T07:54:40;8.43;;;3.90;;
81152;SDS011;70630;45.546;10.198;2023-07-29T07:57:06;7.68;;;3.67;;
81152;SDS011;70630;45.546;10.198;2023-07-29T07:59:32;8.80;;;3.80;;
81152;SDS011;70630;45.546;10.198;2023-07-29T08:01:58;10.07;;;4.05;;
81152;SDS011;70630;45.546;10.198;2023-07-29T08:04:24;8.27;;;4.07;;
81152;SDS011;70630;45.546;10.198;2023-07-29T08:06:50;9.27;;;4.00;;
81152;SDS011;70630;45.546;10.198;2023-07-29T08:09:16;7.68;;;3.85;;
81152;SDS011;70630;45.546;10.198;2023-07-29T08:11:42;8.40;;;4.00;;
81152;SDS011;70630;45.546;10.198;2023-07-29T08:14:08;7.95;;;3.60;;
81152;SDS011;70630;45.546;10.198;2023-07-29T08:16:34;7.40;;;3.60;;
81152;SDS011;70630;45.546;10.198;2023-07-29T08:19:00;7.55;;;3.72;;
81152;SDS011;70630;45.546;10.198;2023-07-29T08:21:26;6.88;;;3.70;;
81152;SDS011;70630;45.546;10.198;2023-07-29T08:23:53;7.22;;;3.70;;
81152;SDS011;70630;45.546;10.198;2023-07-29T08:26:19;8.25;;;3.65;;
81152;SDS011;70630;45.546;10.198;2023-07-29T08:28:45;8.65;;;3.95;;
81152;SDS011;70630;45.546;10.198;2023-07-29T08:31:11;8.23;;;3.88;;
81152;SDS011;70630;45.546;10.198;2023-07-29T08:33:37;7.60;;;3.83;;
81152;SDS011;70630;45.546;10.198;2023-07-29T08:36:03;7.53;;;3.60;;
81152;SDS011;70630;45.546;10.198;2023-07-29T08:38:29;6.70;;;3.80;;
81152;SDS011;70630;45.546;10.198;2023-07-29T08:43:22;7.95;;;3.85;;
81152;SDS011;70630;45.546;10.198;2023-07-29T08:45:50;7.00;;;3.75;;
81152;SDS011;70630;45.546;10.198;2023-07-29T08:48:17;8.63;;;3.67;;
81152;SDS011;70630;45.546;10.198;2023-07-29T08:50:45;6.95;;;3.47;;
81152;SDS011;70630;45.546;10.198;2023-07-29T08:53:12;9.10;;;3.92;;
81152;SDS011;70630;45.546;10.198;2023-07-29T08:55:38;6.95;;;3.50;;
81152;SDS011;70630;45.546;10.198;2023-07-29T08:58:04;10.27;;;3.75;;
81152;SDS011;70630;45.546;10.198;2023-07-29T09:00:31;7.40;;;4.03;;
81152;SDS011;70630;45.546;10.198;2023-07-29T09:02:57;7.65;;;3.70;;
81152;SDS011;70630;45.546;10.198;2023-07-29T09:05:28;7.70;;;4.00;;
81152;SDS011;70630;45.546;10.198;2023-07-29T09:07:54;9.70;;;4.00;;
81152;SDS011;70630;45.546;10.198;2023-07-29T09:10:21;7.95;;;3.70;;
81152;SDS011;70630;45.546;10.198;2023-07-29T09:12:50;7.22;;;3.80;;
81152;SDS011;70630;45.546;10.198;2023-07-29T09:15:26;8.82;;;4.05;;
81152;SDS011;70630;45.546;10.198;2023-07-29T09:17:52;7.90;;;3.75;;
81152;SDS011;70630;45.546;10.198;2023-07-29T09:20:23;7.85;;;3.63;;
81152;SDS011;70630;45.546;10.198;2023-07-29T09:22:49;9.00;;;3.90;;
81152;SDS011;70630;45.546;10.198;2023-07-29T09:25:16;7.40;;;3.80;;
81152;SDS011;70630;45.546;10.198;2023-07-29T09:27:42;7.80;;;4.05;;
81152;SDS011;70630;45.546;10.198;2023-07-29T09:30:15;8.73;;;4.20;;
81152;SDS011;70630;45.546;10.198;2023-07-29T09:32:41;10.57;;;4.20;;
81152;SDS011;70630;45.546;10.198;2023-07-29T09:35:11;8.32;;;4.20;;
81152;SDS011;70630;45.546;10.198;2023-07-29T09:37:38;5.95;;;3.70;;
81152;SDS011;70630;45.546;10.198;2023-07-29T09:40:05;7.38;;;3.67;;
81152;SDS011;70630;45.546;10.198;2023-07-29T09:42:31;7.50;;;4.03;;
81152;SDS011;70630;45.546;10.198;2023-07-29T09:44:57;7.68;;;3.83;;
81152;SDS011;70630;45.546;10.198;2023-07-29T09:47:24;8.00;;;3.47;;
81152;SDS011;70630;45.546;10.198;2023-07-29T09:49:51;7.15;;;3.97;;
81152;SDS011;70630;45.546;10.198;2023-07-29T09:52:21;6.63;;;3.47;;
81152;SDS011;70630;45.546;10.198;2023-07-29T09:54:48;7.97;;;3.90;;
81152;SDS011;70630;45.546;10.198;2023-07-29T09:57:14;10.25;;;3.88;;
81152;SDS011;70630;45.546;10.198;2023-07-29T09:59:40;7.50;;;3.95;;
81152;SDS011;70630;45.546;10.198;2023-07-29T10:02:13;8.18;;;4.07;;
81152;SDS011;70630;45.546;10.198;2023-07-29T10:04:40;8.75;;;4.03;;
81152;SDS011;70630;45.546;10.198;2023-07-29T10:07:07;9.05;;;4.40;;
81152;SDS011;70630;45.546;10.198;2023-07-29T10:09:33;7.18;;;3.70;;
81152;SDS011;70630;45.546;10.198;2023-07-29T10:11:59;8.63;;;4.15;;
81152;SDS011;70630;45.546;10.198;2023-07-29T10:14:27;7.35;;;3.60;;
81152;SDS011;70630;45.546;10.198;2023-07-29T10:16:53;7.10;;;3.92;;
81152;SDS011;70630;45.546;10.198;2023-07-29T10:19:20;7.35;;;3.90;;
81152;SDS011;70630;45.546;10.198;2023-07-29T10:21:48;7.72;;;3.83;;
81152;SDS011;70630;45.546;10.198;2023-07-29T10:24:21;7.43;;;3.75;;
81152;SDS011;70630;45.546;10.198;2023-07-29T10:26:53;8.07;;;3.88;;
81152;SDS011;70630;45.546;10.198;2023-07-29T10:29:20;6.90;;;3.40;;
81152;SDS011;70630;45.546;10.198;2023-07-29T10:31:46;7.45;;;3.58;;
81152;SDS011;70630;45.546;10.198;2023-07-29T10:34:12;7.45;;;3.60;;
81152;SDS011;70630;45.546;10.198;2023-07-29T10:36:39;7.32;;;3.80;;
81152;SDS011;70630;45.546;10.198;2023-07-29T10:39:08;7.32;;;3.53;;
81152;SDS011;70630;45.546;10.198;2023-07-29T10:49:42;6.97;;;3.40;;
81152;SDS011;70630;45.546;10.198;2023-07-29T10:52:12;7.90;;;3.53;;
81152;SDS011;70630;45.546;10.198;2023-07-29T10:54:45;8.63;;;3.60;;
81152;SDS011;70630;45.546;10.198;2023-07-29T10:57:15;7.38;;;3.30;;
81152;SDS011;70630;45.546;10.198;2023-07-29T10:59:43;7.40;;;3.50;;
81152;SDS011;70630;45.546;10.198;2023-07-29T11:02:19;7.22;;;3.75;;
81152;SDS011;70630;45.546;10.198;2023-07-29T11:04:46;7.75;;;3.60;;
81152;SDS011;70630;45.546;10.198;2023-07-29T11:12:33;8.32;;;3.30;;
81152;SDS011;70630;45.546;10.198;2023-07-29T11:15:00;7.97;;;3.58;;
81152;SDS011;70630;45.546;10.198;2023-07-29T11:17:29;5.93;;;3.38;;
81152;SDS011;70630;45.546;10.198;2023-07-29T11:19:55;8.10;;;3.10;;
81152;SDS011;70630;45.546;10.198;2023-07-29T11:22:23;6.78;;;3.45;;
81152;SDS011;70630;45.546;10.198;2023-07-29T11:24:49;6.03;;;3.20;;
81152;SDS011;70630;45.546;10.198;2023-07-29T11:27:15;6.47;;;3.65;;
81152;SDS011;70630;45.546;10.198;2023-07-29T11:29:41;7.78;;;3.50;;
81152;SDS011;70630;45.546;10.198;2023-07-29T11:32:09;7.03;;;3.20;;
81152;SDS011;70630;45.546;10.198;2023-07-29T11:34:35;7.15;;;3.30;;
81152;SDS011;70630;45.546;10.198;2023-07-29T11:37:01;7.22;;;3.30;;
81152;SDS011;70630;45.546;10.198;2023-07-29T11:39:27;6.68;;;3.42;;
81152;SDS011;70630;45.546;10.198;2023-07-29T11:41:53;7.95;;;3.28;;
81152;SDS011;70630;45.546;10.198;2023-07-29T11:44:19;8.35;;;3.47;;
81152;SDS011;70630;45.546;10.198;2023-07-29T11:46:45;8.13;;;3.33;;
81152;SDS011;70630;45.546;10.198;2023-07-29T11:49:13;7.60;;;3.67;;
81152;SDS011;70630;45.546;10.198;2023-07-29T11:51:40;5.57;;;3.10;;
81152;SDS011;70630;45.546;10.198;2023-07-29T11:54:07;6.43;;;3.20;;
81152;SDS011;70630;45.546;10.198;2023-07-29T11:56:34;7.47;;;3.30;;
81152;SDS011;70630;45.546;10.198;2023-07-29T11:59:00;5.88;;;3.22;;
81152;SDS011;70630;45.546;10.198;2023-07-29T12:01:28;7.35;;;3.67;;
81152;SDS011;70630;45.546;10.198;2023-07-29T12:03:55;6.30;;;3.20;;
81152;SDS011;70630;45.546;10.198;2023-07-29T12:06:22;6.40;;;3.10;;
81152;SDS011;70630;45.546;10.198;2023-07-29T12:08:49;6.55;;;3.70;;
81152;SDS011;70630;45.546;10.198;2023-07-29T12:11:15;7.03;;;3.38;;
81152;SDS011;70630;45.546;10.198;2023-07-29T12:13:42;7.18;;;3.53;;
81152;SDS011;70630;45.546;10.198;2023-07-29T12:16:08;5.95;;;3.15;;
81152;SDS011;70630;45.546;10.198;2023-07-29T12:18:34;6.30;;;3.35;;
81152;SDS011;70630;45.546;10.198;2023-07-29T12:21:00;6.10;;;3.22;;
81152;SDS011;70630;45.546;10.198;2023-07-29T12:23:26;6.63;;;3.35;;
81152;SDS011;70630;45.546;10.198;2023-07-29T12:25:56;7.22;;;3.40;;
81152;SDS011;70630;45.546;10.198;2023-07-29T12:28:22;6.65;;;3.35;;
81152;SDS011;70630;45.546;10.198;2023-07-29T12:30:55;7.80;;;3.47;;
81152;SDS011;70630;45.546;10.198;2023-07-29T12:33:31;6.38;;;3.38;;
81152;SDS011;70630;45.546;10.198;2023-07-29T12:35:57;6.43;;;3.42;;
81152;SDS011;70630;45.546;10.198;2023-07-29T12:38:27;6.78;;;3.42;;
81152;SDS011;70630;45.546;10.198;2023-07-29T12:40:53;6.90;;;3.40;;
81152;SDS011;70630;45.546;10.198;2023-07-29T12:43:19;7.53;;;3.55;;
81152;SDS011;70630;45.546;10.198;2023-07-29T12:45:45;6.65;;;3.17;;
81152;SDS011;70630;45.546;10.198;2023-07-29T12:48:11;6.25;;;3.33;;
81152;SDS011;70630;45.546;10.198;2023-07-29T12:50:38;6.82;;;3.80;;
81152;SDS011;70630;45.546;10.198;2023-07-29T12:53:04;6.03;;;3.13;;
81152;SDS011;70630;45.546;10.198;2023-07-29T12:55:31;7.57;;;3.20;;
81152;SDS011;70630;45.546;10.198;2023-07-29T12:57:57;6.13;;;3.42;;
81152;SDS011;70630;45.546;10.198;2023-07-29T13:00:26;7.53;;;3.53;;
81152;SDS011;70630;45.546;10.198;2023-07-29T13:02:52;7.70;;;3.58;;
81152;SDS011;70630;45.546;10.198;2023-07-29T13:05:18;6.78;;;3.42;;
81152;SDS011;70630;45.546;10.198;2023-07-29T13:07:44;10.40;;;3.60;;
81152;SDS011;70630;45.546;10.198;2023-07-29T13:10:10;7.20;;;3.50;;
81152;SDS011;70630;45.546;10.198;2023-07-29T13:12:36;7.18;;;3.58;;
81152;SDS011;70630;45.546;10.198;2023-07-29T13:15:02;7.50;;;3.30;;
81152;SDS011;70630;45.546;10.198;2023-07-29T13:17:29;8.38;;;3.50;;
81152;SDS011;70630;45.546;10.198;2023-07-29T13:19:55;6.30;;;3.13;;
81152;SDS011;70630;45.546;10.198;2023-07-29T13:22:21;7.03;;;3.55;;
81152;SDS011;70630;45.546;10.198;2023-07-29T13:24:47;7.35;;;3.15;;
81152;SDS011;70630;45.546;10.198;2023-07-29T13:27:13;7.20;;;3.45;;
81152;SDS011;70630;45.546;10.198;2023-07-29T13:29:39;6.75;;;3.10;;
81152;SDS011;70630;45.546;10.198;2023-07-29T13:32:06;6.30;;;3.30;;
81152;SDS011;70630;45.546;10.198;2023-07-29T13:34:32;7.57;;;3.28;;
81152;SDS011;70630;45.546;10.198;2023-07-29T13:36:59;8.30;;;3.45;;
81152;SDS011;70630;45.546;10.198;2023-07-29T13:39:25;5.57;;;3.03;;
81152;SDS011;70630;45.546;10.198;2023-07-29T13:41:52;8.02;;;3.40;;
81152;SDS011;70630;45.546;10.198;2023-07-29T13:44:18;6.00;;;3.28;;
81152;SDS011;70630;45.546;10.198;2023-07-29T13:46:44;7.15;;;3.63;;
81152;SDS011;70630;45.546;10.198;2023-07-29T13:49:10;6.35;;;3.25;;
81152;SDS011;70630;45.546;10.198;2023-07-29T13:51:37;6.95;;;3.13;;
81152;SDS011;70630;45.546;10.198;2023-07-29T13:54:03;6.28;;;3.40;;
81152;SDS011;70630;45.546;10.198;2023-07-29T13:56:29;6.72;;;3.33;;
81152;SDS011;70630;45.546;10.198;2023-07-29T13:58:55;6.55;;;3.40;;
81152;SDS011;70630;45.546;10.198;2023-07-29T14:01:21;7.20;;;3.80;;
81152;SDS011;70630;45.546;10.198;2023-07-29T14:03:47;7.55;;;3.40;;
81152;SDS011;70630;45.546;10.198;2023-07-29T14:06:13;5.47;;;3.03;;
81152;SDS011;70630;45.546;10.198;2023-07-29T14:08:39;6.65;;;3.25;;
81152;SDS011;70630;45.546;10.198;2023-07-29T14:11:06;8.80;;;3.33;;
81152;SDS011;70630;45.546;10.198;2023-07-29T14:13:33;6.28;;;3.70;;
81152;SDS011;70630;45.546;10.198;2023-07-29T14:16:02;6.88;;;3.47;;
81152;SDS011;70630;45.546;10.198;2023-07-29T14:18:28;7.13;;;3.38;;
81152;SDS011;70630;45.546;10.198;2023-07-29T14:20:54;5.47;;;3.10;;
81152;SDS011;70630;45.546;10.198;2023-07-29T14:23:20;7.07;;;3.55;;
81152;SDS011;70630;45.546;10.198;2023-07-29T14:25:46;6.55;;;3.10;;
81152;SDS011;70630;45.546;10.198;2023-07-29T14:28:12;6.07;;;3.03;;
81152;SDS011;70630;45.546;10.198;2023-07-29T14:30:39;6.13;;;3.45;;
81152;SDS011;70630;45.546;10.198;2023-07-29T14:33:06;7.47;;;3.45;;
81152;SDS011;70630;45.546;10.198;2023-07-29T14:35:32;6.00;;;3.30;;
81152;SDS011;70630;45.546;10.198;2023-07-29T14:37:58;8.07;;;3.28;;
81152;SDS011;70630;45.546;10.198;2023-07-29T14:40:24;6.85;;;3.05;;
81152;SDS011;70630;45.546;10.198;2023-07-29T14:42:50;5.90;;;3.40;;
81152;SDS011;70630;45.546;10.198;2023-07-29T14:45:16;8.07;;;3.30;;
81152;SDS011;70630;45.546;10.198;2023-07-29T14:47:42;6.90;;;3.33;;
81152;SDS011;70630;45.546;10.198;2023-07-29T14:50:08;6.97;;;3.20;;